メインページ
METAR-TAF:

METAR-TAF

空港 :

Bleibler Ranch Aerodrome

クリントン, ブリティッシュコロンビア州, カナダ

緯度: 51-15-59N, 経度: 121-41-05W, 海抜: 1126m

現時点の気象観測

当レポートは29分前の06:00(UTC)に作成
北西の風 3kt
気温 -4°C
湿度 93%
気圧 1011 hPa
視程: 14.5km
高度1000ftの雲はほとんどない
高度5500ftの曇り

METAR: CYIN 150600Z AUTO 31003KT 9SM FEW010 OVC055 M04/M05 A2986 RMK SLP160

時間: 22:29 (06:29 UTC)


TAF: 見つかりません

4,000以上の空港の気象観測と天気予報(METAR報とTAF報)

利用可能な観測所は地図上に黄色い丸と赤い丸で示す。

丸の上にカーソルを重ねると観測所名を参照できる。

次にクリックすると気象観測と天気予報を参照できる。

マップの切り替え:黒色「×」印の緑ボタンをクリックして拡大、「-」印の緑ボタンをクリックして縮小、緑色の三角印をクリックして隣りの地図に切り替え


METAR-TAF: